createdAt,value
2018-10-02T00:00:29.226Z,1008.77
2018-10-02T00:01:29.221Z,1008.78
2018-10-02T00:02:29.176Z,1008.75
2018-10-02T00:03:29.162Z,1008.71
2018-10-02T00:04:29.168Z,1008.68
2018-10-02T00:05:29.149Z,1008.70
2018-10-02T00:06:29.149Z,1008.66
2018-10-02T00:07:29.132Z,1008.63
2018-10-02T00:08:29.104Z,1008.59
2018-10-02T00:09:29.105Z,1008.59
2018-10-02T00:10:29.083Z,1008.60
2018-10-02T00:11:29.087Z,1008.58
2018-10-02T00:12:29.096Z,1008.57
2018-10-02T00:13:29.069Z,1008.58
2018-10-02T00:14:29.051Z,1008.61
2018-10-02T00:15:29.028Z,1008.56
2018-10-02T00:16:29.017Z,1008.58
2018-10-02T00:17:29.028Z,1008.56
2018-10-02T00:18:28.997Z,1008.54
2018-10-02T00:19:29.000Z,1008.61
2018-10-02T00:20:28.980Z,1008.61
2018-10-02T00:21:28.960Z,1008.53
2018-10-02T00:22:28.984Z,1008.49
2018-10-02T00:23:28.938Z,1008.49
2018-10-02T00:24:28.930Z,1008.56
2018-10-02T00:25:28.917Z,1008.58
2018-10-02T00:26:28.910Z,1008.59
2018-10-02T00:27:28.917Z,1008.56
2018-10-02T00:28:28.885Z,1008.56
2018-10-02T00:29:28.872Z,1008.48
2018-10-02T00:30:28.868Z,1008.49
2018-10-02T00:31:28.899Z,1008.49
2018-10-02T00:32:28.919Z,1008.43
2018-10-02T00:33:28.824Z,1008.45
2018-10-02T00:34:28.834Z,1008.44
2018-10-02T00:35:28.812Z,1008.44
2018-10-02T00:36:28.789Z,1008.40
2018-10-02T00:37:28.813Z,1008.43
2018-10-02T00:38:28.771Z,1008.43
2018-10-02T00:39:28.761Z,1008.44
2018-10-02T00:40:28.750Z,1008.42
2018-10-02T00:41:28.751Z,1008.41
2018-10-02T00:42:28.726Z,1008.46
2018-10-02T00:43:28.728Z,1008.44
2018-10-02T00:44:28.705Z,1008.50
2018-10-02T00:45:28.691Z,1008.43
2018-10-02T00:46:28.680Z,1008.44
2018-10-02T00:47:28.683Z,1008.45
2018-10-02T00:48:28.679Z,1008.41
2018-10-02T00:49:28.645Z,1008.41
2018-10-02T00:50:28.646Z,1008.52
2018-10-02T00:51:28.622Z,1008.46
2018-10-02T00:52:28.620Z,1008.45
2018-10-02T00:53:28.635Z,1008.49
2018-10-02T00:54:28.596Z,1008.40
2018-10-02T00:55:28.581Z,1008.38
2018-10-02T00:56:28.576Z,1008.42
2018-10-02T00:57:28.567Z,1008.38
2018-10-02T00:58:28.572Z,1008.47
2018-10-02T00:59:28.534Z,1008.40
2018-10-02T01:00:28.521Z,1008.40
2018-10-02T01:01:28.512Z,1008.42
2018-10-02T01:02:28.529Z,1008.43
2018-10-02T01:03:28.491Z,1008.42
2018-10-02T01:04:28.496Z,1008.45
2018-10-02T01:05:28.472Z,1008.46
2018-10-02T01:06:28.452Z,1008.46
2018-10-02T01:07:28.466Z,1008.43
2018-10-02T01:08:28.480Z,1008.51
2018-10-02T01:09:28.451Z,1008.44
2018-10-02T01:10:28.411Z,1008.44
2018-10-02T01:11:28.400Z,1008.46
2018-10-02T01:12:28.395Z,1008.43
2018-10-02T01:13:28.382Z,1008.44
2018-10-02T01:14:28.381Z,1008.48
2018-10-02T01:15:28.357Z,1008.47
2018-10-02T01:16:28.360Z,1008.49
2018-10-02T01:17:28.334Z,1008.49
2018-10-02T01:18:28.324Z,1008.46
2018-10-02T01:19:28.347Z,1008.47
2018-10-02T01:20:28.295Z,1008.46
2018-10-02T01:21:28.293Z,1008.44
2018-10-02T01:22:28.277Z,1008.40
2018-10-02T01:23:28.267Z,1008.35
2018-10-02T01:24:28.263Z,1008.37
2018-10-02T01:25:28.267Z,1008.37
2018-10-02T01:26:28.230Z,1008.34
2018-10-02T01:27:28.217Z,1008.34
2018-10-02T01:28:28.218Z,1008.38
2018-10-02T01:29:28.198Z,1008.33
2018-10-02T01:30:28.215Z,1008.34
2018-10-02T01:31:28.177Z,1008.33
2018-10-02T01:32:28.165Z,1008.31
2018-10-02T01:33:28.158Z,1008.34
2018-10-02T01:34:28.143Z,1008.33
2018-10-02T01:35:28.143Z,1008.31
2018-10-02T01:36:28.116Z,1008.24
2018-10-02T01:37:28.117Z,1008.28
2018-10-02T01:38:28.100Z,1008.24
2018-10-02T01:39:28.084Z,1008.27
2018-10-02T01:40:28.096Z,1008.30
2018-10-02T01:41:28.069Z,1008.27
2018-10-02T01:42:28.065Z,1008.19
2018-10-02T01:43:28.048Z,1008.23
2018-10-02T01:44:28.042Z,1008.24
2018-10-02T01:45:28.037Z,1008.31
2018-10-02T01:46:28.006Z,1008.23
2018-10-02T01:47:27.995Z,1008.21
2018-10-02T01:48:28.004Z,1008.17
2018-10-02T01:49:27.973Z,1008.14
2018-10-02T01:50:27.985Z,1008.19
2018-10-02T01:51:27.952Z,1008.16
2018-10-02T01:52:27.939Z,1008.14
2018-10-02T01:53:27.965Z,1008.17
2018-10-02T01:54:27.916Z,1008.12
2018-10-02T01:55:27.926Z,1008.17
2018-10-02T01:56:27.892Z,1008.14
2018-10-02T01:57:27.891Z,1008.12
2018-10-02T01:58:27.876Z,1008.09
2018-10-02T01:59:27.860Z,1008.06
2018-10-02T02:00:27.876Z,1008.04
2018-10-02T02:01:27.854Z,1008.01
2018-10-02T02:02:27.833Z,1008.07
2018-10-02T02:03:27.813Z,1008.01
2018-10-02T02:04:27.804Z,1008.03
2018-10-02T02:05:27.794Z,1008.05
2018-10-02T02:06:27.797Z,1008.04
2018-10-02T02:07:27.771Z,1007.99
2018-10-02T02:08:27.769Z,1007.99
2018-10-02T02:09:27.755Z,1007.95
2018-10-02T02:10:27.735Z,1007.94
2018-10-02T02:11:27.744Z,1007.98
2018-10-02T02:12:27.723Z,1008.00
2018-10-02T02:13:27.704Z,1008.01
2018-10-02T02:14:27.691Z,1008.00
2018-10-02T02:15:27.687Z,1007.97
2018-10-02T02:16:27.691Z,1007.95
2018-10-02T02:17:27.658Z,1007.95
2018-10-02T02:18:27.660Z,1007.96
2018-10-02T02:19:27.639Z,1007.97
2018-10-02T02:20:27.630Z,1007.90
2018-10-02T02:21:27.657Z,1007.92
2018-10-02T02:22:27.602Z,1007.82
2018-10-02T02:23:27.609Z,1007.77
2018-10-02T02:24:27.584Z,1007.84
2018-10-02T02:25:27.576Z,1007.82
2018-10-02T02:26:27.592Z,1007.84
2018-10-02T02:27:27.565Z,1007.80
2018-10-02T02:28:27.536Z,1007.75
2018-10-02T02:29:27.533Z,1007.70
2018-10-02T02:30:27.519Z,1007.73
2018-10-02T02:31:27.508Z,1007.67
2018-10-02T02:32:27.524Z,1007.66
2018-10-02T02:33:27.481Z,1007.74
2018-10-02T02:34:27.478Z,1007.79
2018-10-02T02:35:27.469Z,1007.72
2018-10-02T02:36:27.445Z,1007.67
2018-10-02T02:37:27.445Z,1007.65
2018-10-02T02:38:27.440Z,1007.69
2018-10-02T02:39:27.412Z,1007.73
2018-10-02T02:40:27.399Z,1007.73
2018-10-02T02:41:27.394Z,1007.69
2018-10-02T02:42:27.396Z,1007.66
2018-10-02T02:43:27.374Z,1007.66
2018-10-02T02:44:27.355Z,1007.66
2018-10-02T02:45:27.351Z,1007.68
2018-10-02T02:46:27.328Z,1007.68
2018-10-02T02:47:27.338Z,1007.67
2018-10-02T02:48:27.315Z,1007.62
2018-10-02T02:49:27.313Z,1007.57
2018-10-02T02:50:27.286Z,1007.59
2018-10-02T02:51:27.279Z,1007.60
2018-10-02T02:52:27.318Z,1007.55
2018-10-02T02:53:27.267Z,1007.52
2018-10-02T02:54:27.243Z,1007.53
2018-10-02T02:55:27.235Z,1007.51
2018-10-02T02:56:27.227Z,1007.50
2018-10-02T02:57:27.207Z,1007.46
2018-10-02T02:58:27.219Z,1007.47
2018-10-02T02:59:27.189Z,1007.47
2018-10-02T03:00:27.168Z,1007.44
2018-10-02T03:01:27.161Z,1007.46
2018-10-02T03:02:27.168Z,1007.43
2018-10-02T03:03:27.153Z,1007.35
2018-10-02T03:04:27.126Z,1007.37
2018-10-02T03:05:27.117Z,1007.26
2018-10-02T03:06:27.117Z,1007.31
2018-10-02T03:07:27.099Z,1007.27
2018-10-02T03:08:27.139Z,1007.25
2018-10-02T03:09:27.090Z,1007.25
2018-10-02T03:10:27.062Z,1007.18
2018-10-02T03:11:27.054Z,1007.15
2018-10-02T03:12:27.038Z,1007.14
2018-10-02T03:13:27.027Z,1007.19
2018-10-02T03:14:27.038Z,1007.18
2018-10-02T03:15:27.004Z,1007.17
2018-10-02T03:16:26.995Z,1007.15
2018-10-02T03:17:26.989Z,1007.14
2018-10-02T03:18:26.980Z,1007.20
2018-10-02T03:19:26.983Z,1007.15
2018-10-02T03:20:26.957Z,1007.16
2018-10-02T03:21:26.933Z,1007.14
2018-10-02T03:22:26.932Z,1007.16
2018-10-02T03:23:26.937Z,1007.13
2018-10-02T03:24:26.949Z,1007.09
2018-10-02T03:25:26.893Z,1007.07
2018-10-02T03:26:26.880Z,1007.03
2018-10-02T03:27:26.872Z,1007.04
2018-10-02T03:28:26.862Z,1007.07
2018-10-02T03:29:26.856Z,1007.01
2018-10-02T03:30:26.844Z,1007.00
2018-10-02T03:31:26.829Z,1006.95
2018-10-02T03:32:26.812Z,1007.01
2018-10-02T03:33:26.818Z,1007.03
2018-10-02T03:34:26.803Z,1007.04
2018-10-02T03:35:26.802Z,1007.02
2018-10-02T03:36:26.768Z,1006.97
2018-10-02T03:37:26.756Z,1007.00
2018-10-02T03:38:26.745Z,1006.99
2018-10-02T03:39:26.756Z,1006.95
2018-10-02T03:40:26.748Z,1006.95
2018-10-02T03:41:26.712Z,1006.91
2018-10-02T03:42:26.705Z,1006.94
2018-10-02T03:43:26.691Z,1006.92
2018-10-02T03:44:26.709Z,1006.97
2018-10-02T03:45:26.670Z,1006.92
2018-10-02T03:46:26.663Z,1006.89
2018-10-02T03:47:26.650Z,1006.90
2018-10-02T03:48:26.633Z,1006.93
2018-10-02T03:49:26.620Z,1006.89
2018-10-02T03:50:26.631Z,1006.92
2018-10-02T03:51:26.602Z,1006.90
2018-10-02T03:52:26.591Z,1006.82
2018-10-02T03:53:26.587Z,1006.81
2018-10-02T03:54:26.568Z,1006.78
2018-10-02T03:55:26.569Z,1006.78
2018-10-02T03:56:26.541Z,1006.78
2018-10-02T03:57:26.527Z,1006.71
2018-10-02T03:58:26.530Z,1006.69
2018-10-02T03:59:26.513Z,1006.74
2018-10-02T04:00:26.509Z,1006.77
2018-10-02T04:01:26.484Z,1006.73
2018-10-02T04:02:26.491Z,1006.81
2018-10-02T04:03:26.480Z,1006.81
2018-10-02T04:04:26.451Z,1006.78
2018-10-02T04:05:26.481Z,1006.76
2018-10-02T04:06:26.427Z,1006.79
2018-10-02T04:07:26.420Z,1006.72
2018-10-02T04:08:26.402Z,1006.73
2018-10-02T04:09:26.391Z,1006.77
2018-10-02T04:10:26.415Z,1006.78
2018-10-02T04:11:26.383Z,1006.74
2018-10-02T04:12:26.380Z,1006.71
2018-10-02T04:13:26.349Z,1006.79
2018-10-02T04:14:26.354Z,1006.79
2018-10-02T04:15:26.338Z,1006.77
2018-10-02T04:16:26.336Z,1006.68
2018-10-02T04:17:26.306Z,1006.70
2018-10-02T04:18:26.296Z,1006.67
2018-10-02T04:19:26.302Z,1006.68
2018-10-02T04:20:26.271Z,1006.73
2018-10-02T04:21:26.281Z,1006.68
2018-10-02T04:22:26.248Z,1006.64
2018-10-02T04:23:26.250Z,1006.50
2018-10-02T04:24:26.243Z,1006.46
2018-10-02T04:25:26.220Z,1006.40
2018-10-02T04:26:26.219Z,1006.36
2018-10-02T04:27:26.196Z,1006.31
2018-10-02T04:28:26.278Z,1006.27
2018-10-02T04:29:26.175Z,1006.29
2018-10-02T04:30:26.164Z,1006.34
2018-10-02T04:31:26.182Z,1006.36
2018-10-02T04:32:26.135Z,1006.43
2018-10-02T04:33:26.121Z,1006.32
2018-10-02T04:34:26.116Z,1006.27
2018-10-02T04:35:26.103Z,1006.20
2018-10-02T04:36:26.098Z,1006.22
2018-10-02T04:37:26.106Z,1006.17
2018-10-02T04:38:26.078Z,1006.23
2018-10-02T04:39:26.085Z,1006.12
2018-10-02T04:40:26.050Z,1006.13
2018-10-02T04:41:26.039Z,1006.09
2018-10-02T04:42:26.053Z,1006.14
2018-10-02T04:43:26.016Z,1006.17
2018-10-02T04:44:25.999Z,1006.16
2018-10-02T04:45:25.990Z,1006.15
2018-10-02T04:46:25.980Z,1006.15
2018-10-02T04:47:25.983Z,1006.18
2018-10-02T04:48:25.956Z,1006.15
2018-10-02T04:49:25.947Z,1006.22
2018-10-02T04:50:25.932Z,1006.24
2018-10-02T04:51:25.951Z,1006.19
2018-10-02T04:52:25.937Z,1006.15
2018-10-02T04:53:25.918Z,1006.09
2018-10-02T04:54:25.897Z,1006.04
2018-10-02T04:55:25.879Z,1006.09
2018-10-02T04:56:25.868Z,1006.06
2018-10-02T04:57:25.895Z,1005.98
2018-10-02T04:58:25.882Z,1005.96
2018-10-02T04:59:25.828Z,1005.94
2018-10-02T05:00:25.830Z,1005.92
2018-10-02T05:01:25.829Z,1005.94
2018-10-02T05:02:25.817Z,1005.89
2018-10-02T05:03:25.802Z,1005.94
2018-10-02T05:04:25.775Z,1005.89
2018-10-02T05:05:25.776Z,1005.97
2018-10-02T05:06:25.808Z,1005.91
2018-10-02T05:07:25.745Z,1005.91
2018-10-02T05:08:25.840Z,1005.90
2018-10-02T05:09:25.740Z,1005.90
2018-10-02T05:10:25.713Z,1005.83
2018-10-02T05:11:25.698Z,1005.85
2018-10-02T05:12:26.358Z,1005.87
2018-10-02T05:13:25.712Z,1005.82
2018-10-02T05:14:25.681Z,1005.88
2018-10-02T05:15:25.673Z,1005.85
2018-10-02T05:16:25.664Z,1005.89
2018-10-02T05:17:25.631Z,1005.87
2018-10-02T05:18:25.635Z,1005.94
2018-10-02T05:19:25.621Z,1005.93
2018-10-02T05:20:25.679Z,1005.88
2018-10-02T05:21:25.583Z,1005.92
2018-10-02T05:22:25.589Z,1005.87
2018-10-02T05:23:25.575Z,1005.95
2018-10-02T05:24:25.589Z,1005.91
2018-10-02T05:25:25.550Z,1005.94
2018-10-02T05:26:25.556Z,1005.94
2018-10-02T05:27:25.664Z,1005.90
2018-10-02T05:28:25.518Z,1005.93
2018-10-02T05:29:25.535Z,1005.90
2018-10-02T05:30:25.484Z,1005.86
2018-10-02T05:31:25.489Z,1005.94
2018-10-02T05:32:25.475Z,1005.97
2018-10-02T05:33:25.477Z,1005.87
2018-10-02T05:34:33.366Z,1005.91
2018-10-02T05:35:25.472Z,1005.90
2018-10-02T05:36:25.408Z,1005.94
2018-10-02T05:37:25.396Z,1005.97
2018-10-02T05:38:25.385Z,1005.86
2018-10-02T05:39:32.477Z,1005.88
2018-10-02T05:40:25.367Z,1005.92
2018-10-02T05:41:25.355Z,1005.93
2018-10-02T05:42:25.343Z,1005.87
2018-10-02T05:43:25.343Z,1005.88
2018-10-02T05:44:25.349Z,1005.83
2018-10-02T05:45:25.313Z,1005.81
2018-10-02T05:46:25.308Z,1005.79
2018-10-02T05:47:25.290Z,1005.84
2018-10-02T05:48:25.298Z,1005.82
2018-10-02T05:50:34.606Z,1005.73
2018-10-02T05:51:34.523Z,1005.75
2018-10-02T05:52:34.513Z,1005.80
2018-10-02T05:53:34.499Z,1005.78
2018-10-02T05:54:34.507Z,1005.78
2018-10-02T05:55:34.479Z,1005.74
2018-10-02T05:56:34.470Z,1005.73
2018-10-02T05:57:34.459Z,1005.76
2018-10-02T05:58:34.452Z,1005.82
2018-10-02T05:59:34.461Z,1005.80
2018-10-02T06:00:34.429Z,1005.78
2018-10-02T06:01:34.415Z,1005.83
2018-10-02T06:02:34.447Z,1005.84
2018-10-02T06:03:34.407Z,1005.81
2018-10-02T06:04:34.407Z,1005.77
2018-10-02T06:05:34.380Z,1005.79
2018-10-02T06:06:34.390Z,1005.74
2018-10-02T06:07:34.344Z,1005.72
2018-10-02T06:08:34.345Z,1005.71
2018-10-02T06:09:34.344Z,1005.71
2018-10-02T06:10:34.312Z,1005.70
2018-10-02T06:11:34.303Z,1005.70
2018-10-02T06:12:34.298Z,1005.66
2018-10-02T06:13:34.280Z,1005.71
2018-10-02T06:14:34.293Z,1005.66
2018-10-02T06:15:34.261Z,1005.72
2018-10-02T06:16:34.246Z,1005.64
2018-10-02T06:17:34.244Z,1005.67
2018-10-02T06:18:34.260Z,1005.60
2018-10-02T06:19:34.213Z,1005.65
2018-10-02T06:20:34.261Z,1005.66
2018-10-02T06:21:34.193Z,1005.68
2018-10-02T06:22:34.193Z,1005.62
2018-10-02T06:23:34.171Z,1005.60
2018-10-02T06:24:34.183Z,1005.58
2018-10-02T06:25:34.169Z,1005.54
2018-10-02T06:26:34.146Z,1005.56
2018-10-02T06:27:34.129Z,1005.62
2018-10-02T06:28:34.130Z,1005.51
2018-10-02T06:29:34.113Z,1005.52
2018-10-02T06:30:34.113Z,1005.49
2018-10-02T06:31:34.130Z,1005.53
2018-10-02T06:32:34.073Z,1005.56
2018-10-02T06:33:34.080Z,1005.47
2018-10-02T06:34:34.052Z,1005.47
2018-10-02T06:35:34.728Z,1005.44
2018-10-02T06:36:34.067Z,1005.34
2018-10-02T06:37:34.027Z,1005.37
2018-10-02T06:38:34.154Z,1005.36
2018-10-02T06:39:34.005Z,1005.30
2018-10-02T06:40:34.007Z,1005.31
2018-10-02T06:41:33.977Z,1005.32
2018-10-02T06:42:33.965Z,1005.32
2018-10-02T06:43:34.071Z,1005.29
2018-10-02T06:44:33.983Z,1005.28
2018-10-02T06:45:33.956Z,1005.22
2018-10-02T06:46:33.926Z,1005.20
2018-10-02T06:47:33.910Z,1005.18
2018-10-02T06:48:33.891Z,1005.21
2018-10-02T06:49:33.899Z,1005.17
2018-10-02T06:50:33.929Z,1005.22
2018-10-02T06:51:33.905Z,1005.22
2018-10-02T06:52:34.199Z,1005.16
2018-10-02T06:53:33.836Z,1005.16
2018-10-02T06:54:33.839Z,1005.15
2018-10-02T06:55:33.838Z,1005.16
2018-10-02T06:56:33.879Z,1005.17
2018-10-02T06:57:33.797Z,1005.23
2018-10-02T06:58:33.805Z,1005.19
2018-10-02T06:59:33.776Z,1005.21
2018-10-02T07:00:33.801Z,1005.13
2018-10-02T07:01:33.760Z,1005.18
2018-10-02T07:02:33.767Z,1005.22
2018-10-02T07:03:33.739Z,1005.17
2018-10-02T07:04:33.718Z,1005.23
2018-10-02T07:05:33.769Z,1005.15
2018-10-02T07:06:33.730Z,1005.13
2018-10-02T07:07:33.720Z,1005.12
2018-10-02T07:08:33.740Z,1005.06
2018-10-02T07:09:33.674Z,1005.03
2018-10-02T07:10:33.665Z,1005.07
2018-10-02T07:11:33.650Z,1005.03
2018-10-02T07:12:33.697Z,1004.97
2018-10-02T07:13:33.619Z,1004.96
2018-10-02T07:14:33.652Z,1004.97
2018-10-02T07:15:33.590Z,1004.93
2018-10-02T07:16:33.606Z,1004.91
2018-10-02T07:17:33.617Z,1004.97
2018-10-02T07:18:33.584Z,1004.97
2018-10-02T07:19:33.549Z,1005.01
2018-10-02T07:20:33.661Z,1004.98
2018-10-02T07:21:33.546Z,1005.01
2018-10-02T07:22:33.531Z,1004.94
2018-10-02T07:23:33.512Z,1004.90
2018-10-02T07:24:33.489Z,1004.94
2018-10-02T07:25:33.484Z,1004.94
2018-10-02T07:26:33.634Z,1005.00
2018-10-02T07:27:33.596Z,1005.01
2018-10-02T07:28:33.455Z,1005.04
2018-10-02T07:29:33.436Z,1005.03
2018-10-02T07:30:33.455Z,1004.97
2018-10-02T07:31:33.430Z,1004.95
2018-10-02T07:32:33.466Z,1004.89
2018-10-02T07:33:33.398Z,1004.93
2018-10-02T07:34:33.387Z,1004.90
2018-10-02T07:35:33.377Z,1004.98
2018-10-02T07:36:33.427Z,1004.96
2018-10-02T07:37:33.358Z,1004.94
2018-10-02T07:38:33.397Z,1004.88
2018-10-02T07:39:33.353Z,1004.96
2018-10-02T07:40:33.316Z,1004.92
2018-10-02T07:41:33.379Z,1004.83
2018-10-02T07:42:33.302Z,1004.79
2018-10-02T07:43:33.277Z,1004.79
2018-10-02T07:44:33.281Z,1004.66
2018-10-02T07:45:33.282Z,1004.74
2018-10-02T07:46:33.308Z,1004.72
2018-10-02T07:47:33.281Z,1004.59
2018-10-02T07:48:33.311Z,1004.60
2018-10-02T07:49:33.216Z,1004.61
2018-10-02T07:50:33.221Z,1004.65
2018-10-02T07:51:33.207Z,1004.65
2018-10-02T07:52:33.185Z,1004.65
2018-10-02T07:53:33.227Z,1004.61
2018-10-02T07:54:33.256Z,1004.58
2018-10-02T07:55:40.901Z,1004.56
2018-10-02T07:56:33.227Z,1004.60
2018-10-02T07:57:33.121Z,1004.54
2018-10-02T07:58:33.111Z,1004.54
2018-10-02T07:59:33.116Z,1004.52
2018-10-02T08:00:33.103Z,1004.56
2018-10-02T08:01:33.092Z,1004.63
2018-10-02T08:02:33.114Z,1004.60
2018-10-02T08:03:33.054Z,1004.64
2018-10-02T08:04:33.047Z,1004.59
2018-10-02T08:05:33.147Z,1004.57
2018-10-02T08:06:33.055Z,1004.57
2018-10-02T08:07:33.030Z,1004.64
2018-10-02T08:08:33.054Z,1004.43
2018-10-02T08:09:32.996Z,1004.33
2018-10-02T08:10:32.982Z,1004.34
2018-10-02T08:11:33.004Z,1004.30
2018-10-02T08:12:33.029Z,1004.28
2018-10-02T08:13:32.964Z,1004.27
2018-10-02T08:14:32.985Z,1004.35
2018-10-02T08:15:32.925Z,1004.29
2018-10-02T08:16:32.931Z,1004.32
2018-10-02T08:17:32.935Z,1004.25
2018-10-02T08:18:32.892Z,1004.22
2018-10-02T08:19:32.914Z,1004.24
2018-10-02T08:20:32.908Z,1004.19
2018-10-02T08:21:32.874Z,1004.17
2018-10-02T08:22:32.855Z,1004.22
2018-10-02T08:23:32.865Z,1004.23
2018-10-02T08:24:32.839Z,1004.27
2018-10-02T08:25:32.810Z,1004.31
2018-10-02T08:26:32.831Z,1004.32
2018-10-02T08:27:32.791Z,1004.30
2018-10-02T08:28:32.777Z,1004.35
2018-10-02T08:29:32.827Z,1004.26
2018-10-02T08:30:32.756Z,1004.30
2018-10-02T08:31:32.763Z,1004.19
2018-10-02T08:32:32.834Z,1004.18
2018-10-02T08:33:32.722Z,1004.18
2018-10-02T08:34:32.709Z,1004.11
2018-10-02T08:35:32.752Z,1004.10
2018-10-02T08:36:32.722Z,1004.15
2018-10-02T08:37:32.696Z,1004.18
2018-10-02T08:38:32.724Z,1004.23
2018-10-02T08:39:32.656Z,1004.33
2018-10-02T08:40:32.661Z,1004.20
2018-10-02T08:41:32.642Z,1004.21
2018-10-02T08:42:32.647Z,1004.16
2018-10-02T08:43:32.702Z,1004.09
2018-10-02T08:44:32.662Z,1004.13
2018-10-02T08:45:32.597Z,1004.13
2018-10-02T08:46:32.588Z,1004.14
2018-10-02T08:47:32.643Z,1004.12
2018-10-02T08:48:32.565Z,1004.05
2018-10-02T08:49:32.545Z,1004.08
2018-10-02T08:50:32.592Z,1004.07
2018-10-02T08:51:32.526Z,1003.99
2018-10-02T08:52:32.538Z,1004.03
2018-10-02T08:53:32.522Z,1004.02
2018-10-02T08:54:32.489Z,1004.03
2018-10-02T08:55:32.479Z,1004.08
2018-10-02T08:56:32.467Z,1004.12
2018-10-02T08:57:32.477Z,1004.06
2018-10-02T08:58:32.462Z,1004.12
2018-10-02T08:59:32.443Z,1004.06
2018-10-02T09:00:32.452Z,1004.01
2018-10-02T09:01:32.414Z,1003.92
2018-10-02T09:02:32.415Z,1004.05
2018-10-02T09:03:32.388Z,1003.89
2018-10-02T09:04:32.385Z,1004.23
2018-10-02T09:05:32.365Z,1003.82
2018-10-02T09:06:32.401Z,1003.91
2018-10-02T09:07:32.355Z,1003.76
2018-10-02T09:08:32.335Z,1003.85
2018-10-02T09:09:32.320Z,1003.77
2018-10-02T09:10:32.322Z,1003.77
2018-10-02T09:11:32.302Z,1003.60
2018-10-02T09:12:32.332Z,1003.69
2018-10-02T09:13:32.281Z,1003.75
2018-10-02T09:14:32.267Z,1003.81
2018-10-02T09:15:32.387Z,1003.81
2018-10-02T09:16:32.315Z,1003.79
2018-10-02T09:17:32.242Z,1003.78
2018-10-02T09:18:32.306Z,1003.88
2018-10-02T09:19:32.213Z,1003.90
2018-10-02T09:20:32.199Z,1003.74
2018-10-02T09:21:32.228Z,1003.87
2018-10-02T09:22:32.202Z,1003.85
2018-10-02T09:23:32.167Z,1003.77
2018-10-02T09:24:32.214Z,1003.74
2018-10-02T09:25:32.150Z,1003.78
2018-10-02T09:26:32.135Z,1003.69
2018-10-02T09:27:32.208Z,1003.75
2018-10-02T09:28:32.160Z,1003.73
2018-10-02T09:29:32.098Z,1003.83
2018-10-02T09:30:32.137Z,1003.65
2018-10-02T09:31:32.077Z,1003.73
2018-10-02T09:32:32.092Z,1003.70
2018-10-02T09:33:32.145Z,1003.70
2018-10-02T09:34:32.045Z,1003.75
2018-10-02T09:35:32.036Z,1003.61
2018-10-02T09:36:32.055Z,1003.58
2018-10-02T09:37:32.101Z,1003.68
2018-10-02T09:38:32.027Z,1003.65
2018-10-02T09:39:32.063Z,1003.74
2018-10-02T09:40:31.973Z,1003.60
2018-10-02T09:41:31.962Z,1003.60
2018-10-02T09:42:32.012Z,1003.57
2018-10-02T09:43:32.133Z,1003.65
2018-10-02T09:44:31.928Z,1003.67
2018-10-02T09:45:31.982Z,1003.69
2018-10-02T09:46:31.907Z,1003.61
2018-10-02T09:47:31.923Z,1003.68
2018-10-02T09:48:31.907Z,1003.66
2018-10-02T09:49:31.911Z,1003.66
2018-10-02T09:50:31.897Z,1003.72
2018-10-02T09:51:31.882Z,1003.67
2018-10-02T09:52:31.855Z,1003.68
2018-10-02T09:53:31.852Z,1003.72
2018-10-02T09:54:31.828Z,1003.65
2018-10-02T09:55:31.845Z,1003.73
2018-10-02T09:56:31.824Z,1003.57
2018-10-02T09:57:31.790Z,1003.57
2018-10-02T09:58:31.833Z,1003.55
2018-10-02T09:59:31.765Z,1003.66
2018-10-02T10:00:31.767Z,1003.61
2018-10-02T10:01:31.752Z,1003.64
2018-10-02T10:02:31.798Z,1003.67
2018-10-02T10:03:31.745Z,1003.69
2018-10-02T10:04:31.710Z,1003.58
2018-10-02T10:05:31.728Z,1003.75
2018-10-02T10:06:31.701Z,1003.58
2018-10-02T10:07:31.674Z,1003.62
2018-10-02T10:08:31.681Z,1003.50
2018-10-02T10:09:31.655Z,1003.50
2018-10-02T10:10:31.670Z,1003.49
2018-10-02T10:11:31.634Z,1003.60
2018-10-02T10:12:31.627Z,1003.59
2018-10-02T10:13:31.641Z,1003.49
2018-10-02T10:14:31.608Z,1003.51
2018-10-02T10:15:31.620Z,1003.52
2018-10-02T10:16:31.646Z,1003.62
2018-10-02T10:17:31.643Z,1003.50
2018-10-02T10:18:31.600Z,1003.46
2018-10-02T10:19:31.543Z,1003.51
2018-10-02T10:20:32.264Z,1003.54
2018-10-02T10:21:31.523Z,1003.44
2018-10-02T10:22:31.521Z,1003.58
2018-10-02T10:23:31.511Z,1003.40
2018-10-02T10:24:31.481Z,1003.42
2018-10-02T10:25:31.474Z,1003.39
2018-10-02T10:26:31.491Z,1003.43
2018-10-02T10:27:31.453Z,1003.39
2018-10-02T10:28:31.516Z,1003.36
2018-10-02T10:29:31.442Z,1003.35
2018-10-02T10:30:31.421Z,1003.49
2018-10-02T10:31:31.411Z,1003.30
2018-10-02T10:32:31.398Z,1003.33
2018-10-02T10:33:32.315Z,1003.30
2018-10-02T10:34:31.491Z,1003.38
2018-10-02T10:35:31.363Z,1003.30
2018-10-02T10:36:31.352Z,1003.39
2018-10-02T10:37:31.338Z,1003.39
2018-10-02T10:38:31.336Z,1003.44
2018-10-02T10:39:31.339Z,1003.34
2018-10-02T10:40:31.441Z,1003.45
2018-10-02T10:41:31.300Z,1003.45
2018-10-02T10:42:31.285Z,1003.43
2018-10-02T10:43:31.296Z,1003.40
2018-10-02T10:44:31.276Z,1003.50
2018-10-02T10:45:31.270Z,1003.47
2018-10-02T10:46:31.298Z,1003.44
2018-10-02T10:47:31.279Z,1003.42
2018-10-02T10:48:31.222Z,1003.40
2018-10-02T10:49:31.225Z,1003.43
2018-10-02T10:50:31.213Z,1003.44
2018-10-02T10:51:31.187Z,1003.36
2018-10-02T10:52:31.188Z,1003.39
2018-10-02T10:53:31.167Z,1003.39
2018-10-02T10:54:31.168Z,1003.37
2018-10-02T10:55:31.151Z,1003.37
2018-10-02T10:56:31.197Z,1003.40
2018-10-02T10:57:31.113Z,1003.45
2018-10-02T10:58:31.151Z,1003.43
2018-10-02T10:59:31.119Z,1003.29
2018-10-02T11:00:31.087Z,1003.36
2018-10-02T11:01:31.738Z,1003.30
2018-10-02T11:02:31.066Z,1003.32
2018-10-02T11:03:31.699Z,1003.36
2018-10-02T11:04:31.082Z,1003.39
2018-10-02T11:05:31.029Z,1003.35
2018-10-02T11:06:31.023Z,1003.37
2018-10-02T11:07:31.059Z,1003.29
2018-10-02T11:08:31.009Z,1003.33
2018-10-02T11:09:57.281Z,1003.34
2018-10-02T11:10:30.991Z,1003.34
2018-10-02T11:11:30.963Z,1003.30
2018-10-02T11:12:30.948Z,1003.32
2018-10-02T11:13:30.947Z,1003.31
2018-10-02T11:14:30.956Z,1003.34
2018-10-02T11:15:30.924Z,1003.27
2018-10-02T11:16:30.907Z,1003.34
2018-10-02T11:17:30.901Z,1003.24
2018-10-02T11:18:30.885Z,1003.21
2018-10-02T11:19:30.904Z,1003.24
2018-10-02T11:20:30.862Z,1003.22
2018-10-02T11:21:30.849Z,1003.20
2018-10-02T11:22:30.843Z,1003.28
2018-10-02T11:23:30.838Z,1003.24
2018-10-02T11:24:30.831Z,1003.15
2018-10-02T11:25:30.881Z,1003.12
2018-10-02T11:26:30.801Z,1003.05
2018-10-02T11:27:30.784Z,1003.04
2018-10-02T11:28:30.782Z,1003.09
2018-10-02T11:29:30.792Z,1003.03
2018-10-02T11:30:30.768Z,1002.99
2018-10-02T11:31:30.798Z,1003.00
2018-10-02T11:32:30.742Z,1002.97
2018-10-02T11:33:30.738Z,1002.94
2018-10-02T11:34:30.784Z,1002.93
2018-10-02T11:35:30.815Z,1002.99
2018-10-02T11:36:30.681Z,1003.07
2018-10-02T11:37:30.678Z,1003.04
2018-10-02T11:38:30.655Z,1002.96
2018-10-02T11:39:30.661Z,1003.07
2018-10-02T11:40:30.636Z,1003.01
2018-10-02T11:41:30.629Z,1002.95
2018-10-02T11:42:30.612Z,1002.92
2018-10-02T11:43:30.657Z,1002.87
2018-10-02T11:44:30.711Z,1002.96
2018-10-02T11:45:30.592Z,1002.96
2018-10-02T11:46:30.583Z,1002.87
2018-10-02T11:47:30.566Z,1002.86
2018-10-02T11:48:30.552Z,1002.79
2018-10-02T11:49:30.604Z,1002.74
2018-10-02T11:50:30.528Z,1002.85
2018-10-02T11:51:30.536Z,1002.82
2018-10-02T11:52:30.504Z,1002.72
2018-10-02T11:53:30.488Z,1002.76
2018-10-02T11:54:30.502Z,1002.77
2018-10-02T11:55:30.480Z,1002.76
2018-10-02T11:56:30.468Z,1002.74
2018-10-02T11:57:30.478Z,1002.62
2018-10-02T11:58:30.442Z,1002.72
2018-10-02T11:59:30.456Z,1002.76
2018-10-02T12:00:30.485Z,1002.66
2018-10-02T12:01:30.493Z,1002.62
2018-10-02T12:02:30.479Z,1002.67
2018-10-02T12:03:30.457Z,1002.65
2018-10-02T12:04:30.373Z,1002.55
2018-10-02T12:05:30.379Z,1002.57
2018-10-02T12:06:30.361Z,1002.54